createdAt,value
2018-08-10T00:00:01.241Z,100246.53
2018-08-10T00:02:34.888Z,100248.73
2018-08-10T00:05:08.892Z,100245.23
2018-08-10T00:07:42.362Z,100248.22
2018-08-10T00:10:15.758Z,100253.45
2018-08-10T00:12:49.203Z,100250.50
2018-08-10T00:15:22.552Z,100252.94
2018-08-10T00:17:55.957Z,100261.77
2018-08-10T00:20:29.860Z,100267.80
2018-08-10T00:23:03.196Z,100279.20
2018-08-10T00:25:36.601Z,100273.73
2018-08-10T00:28:10.034Z,100275.80
2018-08-10T00:30:43.420Z,100282.20
2018-08-10T00:33:23.373Z,100280.91
2018-08-10T00:35:56.791Z,100288.31
2018-08-10T00:38:30.121Z,100285.09
2018-08-10T00:41:03.468Z,100295.09
2018-08-10T00:43:37.002Z,100297.11
2018-08-10T00:46:10.434Z,100301.98
2018-08-10T00:48:43.803Z,100303.20
2018-08-10T00:51:17.763Z,100311.63
2018-08-10T00:53:51.196Z,100313.93
2018-08-10T00:56:24.545Z,100320.79
2018-08-10T00:58:58.552Z,100312.84
2018-08-10T01:01:31.935Z,100322.29
2018-08-10T01:04:05.595Z,100323.23
2018-08-10T01:06:38.930Z,100318.81
2018-08-10T01:09:13.184Z,100330.08
2018-08-10T01:11:46.533Z,100323.58
2018-08-10T01:14:20.063Z,100328.13
2018-08-10T01:16:53.424Z,100330.08
2018-08-10T01:19:26.937Z,100327.48
2018-08-10T01:22:00.220Z,100331.94
2018-08-10T01:24:33.601Z,100336.25
2018-08-10T01:27:11.209Z,100342.81
2018-08-10T01:29:45.301Z,100353.86
2018-08-10T01:32:18.851Z,100359.36
2018-08-10T01:34:52.235Z,100364.70
2018-08-10T01:37:25.641Z,100365.87
2018-08-10T01:39:59.033Z,100376.09
2018-08-10T01:42:32.426Z,100378.91
2018-08-10T01:45:07.459Z,100394.36
2018-08-10T01:47:40.803Z,100397.38
2018-08-10T01:50:14.186Z,100398.60
2018-08-10T01:52:47.532Z,100404.70
2018-08-10T01:55:21.386Z,100407.13
2018-08-10T01:57:54.719Z,100413.39
2018-08-10T02:00:28.105Z,100411.27
2018-08-10T02:03:01.441Z,100423.06
2018-08-10T02:05:35.018Z,100424.86
2018-08-10T02:08:08.413Z,100416.94
2018-08-10T02:10:41.810Z,100430.20
2018-08-10T02:13:15.185Z,100426.02
2018-08-10T02:15:48.669Z,100434.54
2018-08-10T02:18:22.026Z,100438.55
2018-08-10T02:20:55.437Z,100439.52
2018-08-10T02:23:28.981Z,100440.20
2018-08-10T02:26:02.317Z,100436.92
2018-08-10T02:28:35.714Z,100441.14
2018-08-10T02:31:09.229Z,100451.08
2018-08-10T02:33:42.537Z,100448.97
2018-08-10T02:36:16.082Z,100449.39
2018-08-10T02:38:49.555Z,100459.61
2018-08-10T02:41:22.932Z,100458.41
2018-08-10T02:43:56.647Z,100458.14
2018-08-10T02:46:30.057Z,100460.50
2018-08-10T02:49:03.410Z,100469.08
2018-08-10T02:51:37.688Z,100475.55
2018-08-10T02:54:11.060Z,100480.98
2018-08-10T02:56:44.732Z,100481.88
2018-08-10T02:59:18.254Z,100487.20
2018-08-10T03:01:51.657Z,100494.53
2018-08-10T03:04:25.017Z,100499.61
2018-08-10T03:06:58.610Z,100501.11
2018-08-10T03:09:31.988Z,100508.75
2018-08-10T03:12:05.436Z,100522.11
2018-08-10T03:14:38.873Z,100527.80
2018-08-10T03:17:12.524Z,100527.17
2018-08-10T03:19:45.927Z,100534.81
2018-08-10T03:22:19.475Z,100535.95
2018-08-10T03:24:52.878Z,100528.35
2018-08-10T03:27:26.246Z,100539.20
2018-08-10T03:29:59.681Z,100542.00
2018-08-10T03:32:33.013Z,100545.00
2018-08-10T03:35:06.973Z,100544.17
2018-08-10T03:37:40.392Z,100544.09
2018-08-10T03:40:15.489Z,100552.61
2018-08-10T03:42:48.901Z,100563.67
2018-08-10T03:45:22.309Z,100559.23
2018-08-10T03:47:55.747Z,100579.45
2018-08-10T03:50:29.849Z,100585.87
2018-08-10T03:53:05.386Z,100591.80
2018-08-10T03:55:38.831Z,100606.48
2018-08-10T03:58:12.282Z,100603.80
2018-08-10T04:00:45.650Z,100622.95
2018-08-10T04:03:19.013Z,100625.72
2018-08-10T04:05:52.387Z,100640.71
2018-08-10T04:08:25.748Z,100645.20
2018-08-10T04:10:59.121Z,100645.57
2018-08-10T04:13:32.555Z,100658.19
2018-08-10T04:16:05.995Z,100650.52
2018-08-10T04:18:39.433Z,100662.45
2018-08-10T04:21:12.806Z,100660.72
2018-08-10T04:23:46.227Z,100668.09
2018-08-10T04:26:19.597Z,100659.19
2018-08-10T04:28:52.954Z,100676.38
2018-08-10T04:31:26.381Z,100678.43
2018-08-10T04:33:59.745Z,100683.84
2018-08-10T04:36:33.302Z,100691.35
2018-08-10T04:39:09.955Z,100695.59
2018-08-10T04:41:43.672Z,100699.56
2018-08-10T04:44:17.043Z,100703.22
2018-08-10T04:46:50.443Z,100715.08
2018-08-10T04:49:23.794Z,100711.94
2018-08-10T04:51:57.157Z,100716.81
2018-08-10T04:54:30.472Z,100715.97
2018-08-10T04:57:05.556Z,100726.08
2018-08-10T04:59:38.937Z,100722.50
2018-08-10T05:02:12.317Z,100732.56
2018-08-10T05:04:45.661Z,100734.69
2018-08-10T05:07:19.013Z,100742.66
2018-08-10T05:09:52.453Z,100755.59
2018-08-10T05:12:25.778Z,100752.98
2018-08-10T05:14:59.321Z,100755.86
2018-08-10T05:17:32.736Z,100757.38
2018-08-10T05:20:06.898Z,100769.66
2018-08-10T05:22:40.910Z,100783.96
2018-08-10T05:25:14.273Z,100792.03
2018-08-10T05:27:47.646Z,100801.36
2018-08-10T05:30:21.005Z,100802.59
2018-08-10T05:32:54.398Z,100806.42
2018-08-10T05:35:28.813Z,100811.13
2018-08-10T05:38:02.213Z,100812.75
2018-08-10T05:40:35.781Z,100834.98
2018-08-10T05:43:09.229Z,100828.48
2018-08-10T05:45:42.569Z,100830.22
2018-08-10T05:48:15.965Z,100842.13
2018-08-10T05:50:49.300Z,100845.50
2018-08-10T05:53:22.653Z,100842.78
2018-08-10T05:55:56.048Z,100845.41
2018-08-10T05:58:29.425Z,100840.80
2018-08-10T06:01:02.859Z,100854.19
2018-08-10T06:03:36.445Z,100859.08
2018-08-10T06:06:09.742Z,100866.00
2018-08-10T06:08:43.118Z,100880.07
2018-08-10T06:11:16.535Z,100887.18
2018-08-10T06:13:49.992Z,100892.21
2018-08-10T06:16:23.317Z,100901.94
2018-08-10T06:18:56.680Z,100902.69
2018-08-10T06:21:30.044Z,100913.77
2018-08-10T06:24:03.762Z,100913.78
2018-08-10T06:26:37.391Z,100926.80
2018-08-10T06:29:10.799Z,100935.33
2018-08-10T06:31:44.131Z,100932.72
2018-08-10T06:34:17.622Z,100943.67
2018-08-10T06:36:50.954Z,100944.81
2018-08-10T06:39:24.359Z,100954.23
2018-08-10T06:41:57.714Z,100957.86
2018-08-10T06:44:31.065Z,100964.83
2018-08-10T06:47:04.456Z,100960.67
2018-08-10T06:49:37.864Z,100962.92
2018-08-10T06:52:11.201Z,100966.78
2018-08-10T06:54:44.576Z,100979.28
2018-08-10T06:57:18.014Z,100981.56
2018-08-10T06:59:51.357Z,100990.77
2018-08-10T07:02:24.787Z,100992.70
2018-08-10T07:04:58.199Z,101000.44
2018-08-10T07:07:31.583Z,100998.88
2018-08-10T07:10:06.193Z,101003.55
2018-08-10T07:12:39.512Z,101010.37
2018-08-10T07:15:13.288Z,101015.78
2018-08-10T07:17:46.655Z,101011.14
2018-08-10T07:20:20.000Z,101022.38
2018-08-10T07:22:53.411Z,101037.06
2018-08-10T07:25:26.818Z,101040.27
2018-08-10T07:28:00.185Z,101044.80
2018-08-10T07:30:33.515Z,101035.97
2018-08-10T07:33:07.322Z,101053.81
2018-08-10T07:35:40.645Z,101060.28
2018-08-10T07:38:13.996Z,101061.94
2018-08-10T07:40:47.344Z,101068.77
2018-08-10T07:43:20.739Z,101070.77
2018-08-10T07:45:54.226Z,101072.67
2018-08-10T07:48:27.650Z,101083.58
2018-08-10T07:51:00.993Z,101082.78
2018-08-10T07:53:34.348Z,101077.00
2018-08-10T07:56:07.805Z,101083.16
2018-08-10T07:58:41.226Z,101097.90
2018-08-10T08:01:14.958Z,101101.09
2018-08-10T08:03:48.413Z,101100.71
2018-08-10T08:06:21.951Z,101106.97
2018-08-10T08:08:55.429Z,101098.50
2018-08-10T08:11:28.790Z,101102.66
2018-08-10T08:14:02.096Z,101093.32
2018-08-10T08:16:35.786Z,101109.23
2018-08-10T08:19:09.427Z,101106.83
2018-08-10T08:22:21.238Z,101115.93
2018-08-10T08:24:54.645Z,101117.74
2018-08-10T08:27:28.042Z,101129.00
2018-08-10T08:30:01.382Z,101120.56
2018-08-10T08:32:34.697Z,101129.64
2018-08-10T08:35:08.141Z,101133.96
2018-08-10T08:37:41.394Z,101138.24
2018-08-10T08:40:18.904Z,101136.59
2018-08-10T08:42:52.368Z,101148.55
2018-08-10T08:46:14.913Z,101141.34
2018-08-10T08:48:52.592Z,101151.98
2018-08-10T08:51:26.773Z,101149.59
2018-08-10T08:55:09.358Z,101150.55
2018-08-10T08:57:42.933Z,101155.78
2018-08-10T09:00:16.330Z,101153.62
2018-08-10T09:02:49.637Z,101155.78
2018-08-10T09:05:23.553Z,101155.67
2018-08-10T09:07:57.246Z,101150.19
2018-08-10T09:10:30.631Z,101168.48
2018-08-10T09:13:03.949Z,101171.19
2018-08-10T09:15:37.257Z,101164.20
2018-08-10T09:18:10.613Z,101166.52
2018-08-10T09:20:44.272Z,101165.52
2018-08-10T09:23:17.657Z,101161.33
2018-08-10T09:25:51.047Z,101156.70
2018-08-10T09:28:24.825Z,101167.66
2018-08-10T09:30:58.257Z,101164.38
2018-08-10T09:33:31.592Z,101175.11
2018-08-10T09:36:05.061Z,101169.81
2018-08-10T09:38:38.718Z,101177.85
2018-08-10T09:41:12.657Z,101176.22
2018-08-10T09:43:46.052Z,101177.78
2018-08-10T09:46:19.563Z,101177.31
2018-08-10T09:48:52.910Z,101180.13
2018-08-10T09:51:26.366Z,101181.14
2018-08-10T09:54:00.209Z,101185.20
2018-08-10T09:56:33.936Z,101177.97
2018-08-10T09:59:07.547Z,101179.35
2018-08-10T10:01:48.341Z,101176.37
2018-08-10T10:04:21.735Z,101176.73
2018-08-10T10:06:55.100Z,101177.88
2018-08-10T10:09:28.481Z,101187.72
2018-08-10T10:12:01.858Z,101171.59
2018-08-10T10:14:35.233Z,101174.64
2018-08-10T10:17:08.590Z,101188.20
2018-08-10T10:19:41.908Z,101182.63
2018-08-10T10:22:15.271Z,101196.47
2018-08-10T10:24:48.693Z,101197.52
2018-08-10T10:27:22.122Z,101198.23
2018-08-10T10:29:55.521Z,101194.95
2018-08-10T10:32:28.888Z,101200.95
2018-08-10T10:35:02.633Z,101185.09
2018-08-10T10:37:36.229Z,101201.66
2018-08-10T10:40:10.398Z,101199.35
2018-08-10T10:42:43.753Z,101206.23
2018-08-10T10:45:17.362Z,101204.28
2018-08-10T10:47:50.781Z,101199.25
2018-08-10T10:50:53.367Z,101194.61
2018-08-10T10:53:26.778Z,101200.23
2018-08-10T10:56:00.211Z,101196.94
2018-08-10T10:58:33.636Z,101203.72
2018-08-10T11:01:07.059Z,101207.23
2018-08-10T11:03:40.482Z,101199.80
2018-08-10T11:06:13.909Z,101207.64
2018-08-10T11:08:47.345Z,101196.66
2018-08-10T11:11:20.731Z,101206.45
2018-08-10T11:13:54.141Z,101212.09
2018-08-10T11:16:27.535Z,101208.17
2018-08-10T11:19:00.956Z,101209.48
2018-08-10T11:21:34.445Z,101204.10
2018-08-10T11:24:08.267Z,101207.28
2018-08-10T11:26:41.767Z,101205.41
2018-08-10T11:29:15.207Z,101214.64
2018-08-10T11:31:48.622Z,101207.15
2018-08-10T11:34:22.436Z,101211.70
2018-08-10T11:36:56.545Z,101206.83
2018-08-10T11:39:30.902Z,101221.81
2018-08-10T11:42:04.388Z,101210.22
2018-08-10T11:44:37.828Z,101207.80
2018-08-10T11:47:11.241Z,101213.23
2018-08-10T11:49:44.671Z,101219.44
2018-08-10T11:52:18.079Z,101217.51
2018-08-10T11:54:51.712Z,101223.81
2018-08-10T11:57:25.155Z,101220.61
2018-08-10T11:59:58.656Z,101230.16
2018-08-10T12:02:32.071Z,101225.98
2018-08-10T12:05:07.148Z,101234.06
2018-08-10T12:07:40.807Z,101237.11
2018-08-10T12:10:14.300Z,101232.71
2018-08-10T12:12:49.162Z,101234.54
2018-08-10T12:15:24.500Z,101240.70
2018-08-10T12:18:00.044Z,101229.38
2018-08-10T12:20:34.997Z,101233.02
2018-08-10T12:23:09.842Z,101228.16
2018-08-10T12:25:44.725Z,101219.98
2018-08-10T12:28:19.583Z,101233.55
2018-08-10T12:30:54.646Z,101229.19
2018-08-10T12:33:28.632Z,101236.75
2018-08-10T12:36:02.714Z,101232.95
2018-08-10T12:38:37.021Z,101234.11
2018-08-10T12:41:11.298Z,101228.76
2018-08-10T12:43:45.825Z,101226.89
2018-08-10T12:46:19.940Z,101228.78
2018-08-10T12:48:54.453Z,101220.06
2018-08-10T12:51:28.695Z,101223.39
2018-08-10T12:54:02.962Z,101214.73
2018-08-10T12:56:36.955Z,101221.64
2018-08-10T12:59:11.303Z,101215.70
2018-08-10T13:01:45.409Z,101218.91
2018-08-10T13:04:19.308Z,101222.33
2018-08-10T13:06:53.126Z,101210.88
2018-08-10T13:09:26.965Z,101215.83
2018-08-10T13:12:00.844Z,101212.04
2018-08-10T13:14:34.601Z,101215.95
2018-08-10T13:17:08.358Z,101205.45
2018-08-10T13:19:42.465Z,101212.67
2018-08-10T13:22:16.366Z,101213.08
2018-08-10T13:24:50.961Z,101211.38
2018-08-10T13:27:25.068Z,101205.86
2018-08-10T13:29:59.237Z,101198.67
2018-08-10T13:32:33.548Z,101216.84
2018-08-10T13:35:08.450Z,101210.97
2018-08-10T13:37:42.448Z,101199.20
2018-08-10T13:40:16.436Z,101207.00
2018-08-10T13:42:50.501Z,101209.96
2018-08-10T13:45:24.529Z,101208.45
2018-08-10T13:47:59.027Z,101205.04
2018-08-10T13:50:33.189Z,101207.20
2018-08-10T13:53:07.411Z,101202.13
2018-08-10T13:55:41.264Z,101203.37
2018-08-10T13:58:15.130Z,101201.39
2018-08-10T14:00:49.430Z,101209.27
2018-08-10T14:03:23.559Z,101193.66
2018-08-10T14:05:57.895Z,101212.55
2018-08-10T14:08:32.048Z,101211.13
2018-08-10T14:11:06.273Z,101209.69
2018-08-10T14:13:40.569Z,101210.75
2018-08-10T14:16:14.457Z,101209.12
2018-08-10T14:18:48.168Z,101196.78
2018-08-10T14:21:22.844Z,101192.59
2018-08-10T14:23:56.944Z,101200.02
2018-08-10T14:26:31.419Z,101205.95
2018-08-10T14:29:05.692Z,101213.98
2018-08-10T14:31:40.029Z,101213.63
2018-08-10T14:34:13.864Z,101211.35
2018-08-10T14:36:47.937Z,101199.37
2018-08-10T14:39:22.002Z,101199.52
2018-08-10T14:41:56.187Z,101204.41
2018-08-10T14:44:30.140Z,101192.05
2018-08-10T14:47:04.320Z,101192.56
2018-08-10T14:49:38.658Z,101198.20
2018-08-10T14:52:12.815Z,101196.27
2018-08-10T14:54:46.732Z,101204.78
2018-08-10T14:57:21.081Z,101202.02
2018-08-10T14:59:55.191Z,101206.92
2018-08-10T15:02:29.471Z,101216.08
2018-08-10T15:05:04.014Z,101207.77
2018-08-10T15:07:38.259Z,101211.72
2018-08-10T15:10:14.589Z,101207.73
2018-08-10T15:12:49.137Z,101211.59
2018-08-10T15:15:23.009Z,101202.44
2018-08-10T15:17:57.853Z,101204.92
2018-08-10T15:20:32.005Z,101202.13
2018-08-10T15:23:06.547Z,101205.38
2018-08-10T15:25:40.933Z,101197.83
2018-08-10T15:28:15.483Z,101196.33
2018-08-10T15:30:49.770Z,101205.06
2018-08-10T15:33:24.277Z,101203.63
2018-08-10T15:35:58.404Z,101197.88
2018-08-10T15:38:32.462Z,101197.49
2018-08-10T15:41:06.361Z,101200.14
2018-08-10T15:43:40.884Z,101201.48
2018-08-10T15:46:15.153Z,101197.87
2018-08-10T15:48:48.639Z,101199.45
2018-08-10T15:51:22.061Z,101198.06
2018-08-10T15:53:55.468Z,101193.48
2018-08-10T15:56:29.180Z,101192.20
2018-08-10T15:59:02.742Z,101186.51
2018-08-10T16:01:37.175Z,101187.75
2018-08-10T16:04:10.587Z,101184.18
2018-08-10T16:06:44.056Z,101182.50
2018-08-10T16:09:17.529Z,101178.12
2018-08-10T16:11:51.252Z,101182.31
2018-08-10T16:14:24.795Z,101180.06
2018-08-10T16:16:58.670Z,101174.12
2018-08-10T16:19:32.081Z,101176.70
2018-08-10T16:22:05.846Z,101167.42
2018-08-10T16:24:39.227Z,101167.40
2018-08-10T16:27:12.942Z,101163.22
2018-08-10T16:29:46.520Z,101159.33
2018-08-10T16:32:20.016Z,101160.63
2018-08-10T16:34:54.461Z,101164.92
2018-08-10T16:37:27.983Z,101161.67
2018-08-10T16:40:01.425Z,101163.17
2018-08-10T16:42:35.220Z,101159.27
2018-08-10T16:45:09.268Z,101165.48
2018-08-10T16:47:42.849Z,101158.79
2018-08-10T16:50:17.634Z,101161.96
2018-08-10T16:52:51.175Z,101152.16
2018-08-10T16:55:24.635Z,101149.93
2018-08-10T16:57:58.081Z,101145.53
2018-08-10T17:00:32.187Z,101148.86
2018-08-10T17:03:06.458Z,101151.05
2018-08-10T17:05:41.297Z,101154.09
2018-08-10T17:08:15.074Z,101147.55
2018-08-10T17:10:49.504Z,101146.80
2018-08-10T17:13:22.962Z,101150.95
2018-08-10T17:15:56.812Z,101145.33
2018-08-10T17:18:30.386Z,101150.34
2018-08-10T17:21:03.843Z,101145.97
2018-08-10T17:23:38.078Z,101147.69
2018-08-10T17:26:11.548Z,101148.48
2018-08-10T17:28:45.917Z,101146.53
2018-08-10T17:31:19.647Z,101137.97
2018-08-10T17:33:53.481Z,101136.02
2018-08-10T17:36:27.124Z,101134.72
2018-08-10T17:39:01.986Z,101131.33
2018-08-10T17:41:36.398Z,101132.10
2018-08-10T17:44:11.782Z,101129.61
2018-08-10T17:46:46.192Z,101129.88
2018-08-10T17:49:20.728Z,101129.52
2018-08-10T17:51:54.260Z,101134.16
2018-08-10T17:54:27.776Z,101134.56
2018-08-10T17:57:02.274Z,101134.36
2018-08-10T17:59:35.762Z,101132.88
2018-08-10T18:02:09.453Z,101136.79
2018-08-10T18:04:44.335Z,101136.42
2018-08-10T18:07:21.486Z,101132.98
2018-08-10T18:10:01.921Z,101136.48
2018-08-10T18:12:37.503Z,101133.95
2018-08-10T18:15:13.989Z,101140.16
2018-08-10T18:17:49.096Z,101132.63
2018-08-10T18:20:23.275Z,101130.17
2018-08-10T18:22:56.738Z,101135.90
2018-08-10T18:25:30.159Z,101139.11
2018-08-10T18:28:03.623Z,101132.49
2018-08-10T18:30:37.042Z,101137.23
2018-08-10T18:33:10.505Z,101137.30
2018-08-10T18:35:45.640Z,101141.06
2018-08-10T18:38:19.129Z,101142.42
2018-08-10T18:40:52.652Z,101146.14
2018-08-10T18:43:26.131Z,101146.63
2018-08-10T18:46:00.271Z,101149.31
2018-08-10T18:48:33.822Z,101153.08
2018-08-10T18:51:07.714Z,101153.02
2018-08-10T18:53:41.255Z,101145.17
2018-08-10T18:56:14.783Z,101143.45
2018-08-10T18:58:48.909Z,101152.67
2018-08-10T19:01:23.969Z,101155.75
2018-08-10T19:03:58.137Z,101153.76
2018-08-10T19:06:31.630Z,101157.17
2018-08-10T19:09:07.936Z,101156.41
2018-08-10T19:11:41.389Z,101164.61
2018-08-10T19:14:15.049Z,101163.28
2018-08-10T19:16:48.564Z,101161.58
2018-08-10T19:19:23.200Z,101164.62
2018-08-10T19:21:56.642Z,101161.70
2018-08-10T19:24:30.262Z,101158.69
2018-08-10T19:27:04.527Z,101166.81
2018-08-10T19:29:37.996Z,101168.38
2018-08-10T19:32:11.497Z,101165.82
2018-08-10T19:34:45.041Z,101169.35
2018-08-10T19:37:18.648Z,101166.05
2018-08-10T19:39:52.357Z,101177.91
2018-08-10T19:42:26.109Z,101177.08
2018-08-10T19:45:00.224Z,101168.32
2018-08-10T19:47:33.991Z,101168.02
2018-08-10T19:50:09.310Z,101165.23
2018-08-10T19:52:42.934Z,101157.34
2018-08-10T19:55:16.608Z,101160.25
2018-08-10T19:57:50.158Z,101160.70
2018-08-10T20:00:23.731Z,101169.56
2018-08-10T20:02:57.180Z,101168.31
2018-08-10T20:05:31.582Z,101164.23
2018-08-10T20:08:05.016Z,101168.27
2018-08-10T20:10:39.056Z,101170.85
2018-08-10T20:13:12.455Z,101173.66
2018-08-10T20:15:46.092Z,101171.45
2018-08-10T20:18:19.912Z,101165.64
2018-08-10T20:20:53.438Z,101170.02
2018-08-10T20:23:26.887Z,101171.83
2018-08-10T20:26:00.399Z,101170.50
2018-08-10T20:28:33.885Z,101176.06
2018-08-10T20:31:07.313Z,101165.58
2018-08-10T20:33:40.847Z,101164.00
2018-08-10T20:36:14.292Z,101164.34
2018-08-10T20:38:47.880Z,101169.51
2018-08-10T20:41:21.299Z,101164.18
2018-08-10T20:43:54.792Z,101157.73
2018-08-10T20:46:28.444Z,101162.93
2018-08-10T20:49:01.877Z,101162.41
2018-08-10T20:51:35.335Z,101155.90
2018-08-10T20:54:08.906Z,101159.24
2018-08-10T20:56:42.335Z,101155.93
2018-08-10T20:59:15.785Z,101154.18
2018-08-10T21:01:49.330Z,101156.34
2018-08-10T21:04:22.780Z,101155.13
2018-08-10T21:06:56.215Z,101156.27
2018-08-10T21:09:29.900Z,101153.65
2018-08-10T21:12:03.356Z,101154.21
2018-08-10T21:14:36.793Z,101152.70
2018-08-10T21:17:10.283Z,101150.03
2018-08-10T21:19:43.750Z,101152.41
2018-08-10T21:22:17.214Z,101147.39
2018-08-10T21:24:50.668Z,101150.06
2018-08-10T21:27:24.122Z,101144.59
2018-08-10T21:29:57.602Z,101145.03
2018-08-10T21:32:31.007Z,101142.66
2018-08-10T21:35:04.658Z,101144.03
2018-08-10T21:37:38.212Z,101146.47
2018-08-10T21:40:11.861Z,101144.38
2018-08-10T21:42:45.276Z,101139.34
2018-08-10T21:45:18.714Z,101141.20
2018-08-10T21:47:52.123Z,101138.36
2018-08-10T21:50:25.547Z,101143.63
2018-08-10T21:52:58.994Z,101144.20
2018-08-10T21:55:32.453Z,101139.59
2018-08-10T21:58:05.867Z,101134.63
2018-08-10T22:00:52.795Z,101131.91
2018-08-10T22:03:26.412Z,101138.48
2018-08-10T22:05:59.997Z,101133.42
2018-08-10T22:08:33.472Z,101139.05
2018-08-10T22:11:07.133Z,101139.63
2018-08-10T22:13:45.854Z,101137.23
2018-08-10T22:16:24.652Z,101139.05
2018-08-10T22:19:07.813Z,101132.70
2018-08-10T22:21:42.281Z,101137.09
2018-08-10T22:24:16.396Z,101133.84
2018-08-10T22:26:49.826Z,101130.16
2018-08-10T22:29:23.411Z,101129.41
2018-08-10T22:31:57.030Z,101123.11
2018-08-10T22:34:30.499Z,101124.93
2018-08-10T22:37:03.995Z,101119.03
2018-08-10T22:39:37.419Z,101115.72
2018-08-10T22:42:11.082Z,101112.92
2018-08-10T22:44:44.594Z,101116.48
2018-08-10T22:47:18.161Z,101119.53
2018-08-10T22:49:51.871Z,101107.28
2018-08-10T22:52:25.508Z,101101.75
2018-08-10T22:54:59.215Z,101102.28
2018-08-10T22:57:32.882Z,101096.83
2018-08-10T23:00:06.643Z,101095.67
2018-08-10T23:02:40.355Z,101089.92
2018-08-10T23:05:13.845Z,101089.61
2018-08-10T23:07:47.509Z,101086.62
2018-08-10T23:10:21.023Z,101078.59
2018-08-10T23:12:54.608Z,101079.64
2018-08-10T23:15:28.250Z,101074.69
2018-08-10T23:18:01.947Z,101070.92
2018-08-10T23:20:35.544Z,101073.12
2018-08-10T23:23:09.215Z,101073.30
2018-08-10T23:25:42.817Z,101069.97
2018-08-10T23:28:16.462Z,101057.59
2018-08-10T23:30:50.056Z,101063.64
2018-08-10T23:33:23.713Z,101061.64
2018-08-10T23:35:57.283Z,101061.77
2018-08-10T23:38:31.046Z,101054.02
2018-08-10T23:41:04.738Z,101053.20
2018-08-10T23:43:38.450Z,101055.38
2018-08-10T23:46:11.889Z,101046.78
2018-08-10T23:48:45.300Z,101042.47
2018-08-10T23:51:18.736Z,101041.23
2018-08-10T23:53:52.102Z,101037.53
2018-08-10T23:56:25.507Z,101031.95
2018-08-10T23:58:59.131Z,101031.33
